createdAt,value
2023-07-12T00:00:27.354Z,60.44
2023-07-12T00:02:53.921Z,60.58
2023-07-12T00:05:21.207Z,60.15
2023-07-12T00:07:47.945Z,60.55
2023-07-12T00:10:16.391Z,60.18
2023-07-12T00:12:43.207Z,60.45
2023-07-12T00:15:12.556Z,60.37
2023-07-12T00:17:39.223Z,60.39
2023-07-12T00:20:17.284Z,60.18
2023-07-12T00:22:43.711Z,60.21
2023-07-12T00:25:10.068Z,60.14
2023-07-12T00:27:36.576Z,60.07
2023-07-12T00:30:11.698Z,60.27
2023-07-12T00:32:38.215Z,60.12
2023-07-12T00:35:05.001Z,60.38
2023-07-12T00:37:31.768Z,60.34
2023-07-12T00:39:58.222Z,60.09
2023-07-12T00:42:38.404Z,60.25
2023-07-12T00:45:06.204Z,59.99
2023-07-12T00:47:33.363Z,59.97
2023-07-12T00:50:01.109Z,60.11
2023-07-12T00:52:27.806Z,60.08
2023-07-12T00:55:03.099Z,60.29
2023-07-12T00:57:32.556Z,60.04
2023-07-12T01:00:11.899Z,60.00
2023-07-12T01:02:41.791Z,59.88
2023-07-12T01:05:09.846Z,59.66
2023-07-12T01:07:36.583Z,60.03
2023-07-12T01:10:03.205Z,59.66
2023-07-12T01:12:29.730Z,59.75
2023-07-12T01:14:56.250Z,59.82
2023-07-12T01:17:24.523Z,59.97
2023-07-12T01:19:51.127Z,59.77
2023-07-12T01:22:17.656Z,59.70
2023-07-12T01:24:44.210Z,59.68
2023-07-12T01:27:18.001Z,59.54
2023-07-12T01:29:45.773Z,59.78
2023-07-12T01:32:12.738Z,59.91
2023-07-12T01:34:39.491Z,59.77
2023-07-12T01:37:06.262Z,59.70
2023-07-12T01:39:34.676Z,59.67
2023-07-12T01:42:02.152Z,59.60
2023-07-12T01:44:28.627Z,59.57
2023-07-12T01:46:55.931Z,59.64
2023-07-12T01:49:22.471Z,59.84
2023-07-12T01:51:49.693Z,59.64
2023-07-12T01:54:16.163Z,59.71
2023-07-12T01:56:42.601Z,59.58
2023-07-12T01:59:09.043Z,59.85
2023-07-12T02:01:35.611Z,59.40
2023-07-12T02:04:02.087Z,59.56
2023-07-12T02:06:28.588Z,59.59
2023-07-12T02:08:55.081Z,59.68
2023-07-12T02:11:21.497Z,59.69
2023-07-12T02:13:47.985Z,59.53
2023-07-12T02:16:14.593Z,59.38
2023-07-12T02:18:41.118Z,59.72
2023-07-12T02:21:08.320Z,59.70
2023-07-12T02:23:34.946Z,59.69
2023-07-12T02:26:01.385Z,59.62
2023-07-12T02:28:29.249Z,59.79
2023-07-12T02:30:55.729Z,59.83
2023-07-12T02:33:22.155Z,59.75
2023-07-12T02:35:50.975Z,59.63
2023-07-12T02:38:17.445Z,59.88
2023-07-12T02:40:43.962Z,59.56
2023-07-12T02:43:10.447Z,59.73
2023-07-12T02:45:36.940Z,59.66
2023-07-12T02:48:04.588Z,59.56
2023-07-12T02:50:31.106Z,59.74
2023-07-12T02:52:57.545Z,59.74
2023-07-12T02:55:24.034Z,59.69
2023-07-12T02:57:50.479Z,59.70
2023-07-12T03:00:19.297Z,59.63
2023-07-12T03:02:45.974Z,59.71
2023-07-12T03:05:12.504Z,59.66
2023-07-12T03:07:39.725Z,59.68
2023-07-12T03:10:06.523Z,59.82
2023-07-12T03:12:32.927Z,59.69
2023-07-12T03:14:59.399Z,59.77
2023-07-12T03:17:26.076Z,59.68
2023-07-12T03:19:52.640Z,59.53
2023-07-12T03:22:19.116Z,59.76
2023-07-12T03:24:45.667Z,59.75
2023-07-12T03:27:12.108Z,60.25
2023-07-12T03:29:38.513Z,59.72
2023-07-12T03:32:06.666Z,59.75
2023-07-12T03:34:33.391Z,59.65
2023-07-12T03:37:00.286Z,60.75
2023-07-12T03:39:27.960Z,61.19
2023-07-12T03:41:54.398Z,61.58
2023-07-12T03:44:20.856Z,62.09
2023-07-12T03:46:47.376Z,62.38
2023-07-12T03:49:14.385Z,62.87
2023-07-12T03:51:40.912Z,62.84
2023-07-12T03:54:07.313Z,63.45
2023-07-12T03:56:33.796Z,63.23
2023-07-12T03:59:00.373Z,63.78
2023-07-12T04:01:26.900Z,64.28
2023-07-12T04:03:53.470Z,64.16
2023-07-12T04:06:19.957Z,64.09
2023-07-12T04:08:46.466Z,63.81
2023-07-12T04:11:28.147Z,63.34
2023-07-12T04:13:55.405Z,63.34
2023-07-12T04:16:26.012Z,62.87
2023-07-12T04:18:53.844Z,62.64
2023-07-12T04:21:20.882Z,62.55
2023-07-12T04:23:51.923Z,62.44
2023-07-12T04:26:19.544Z,62.21
2023-07-12T04:28:50.175Z,61.60
2023-07-12T04:31:19.273Z,61.76
2023-07-12T04:33:47.239Z,61.94
2023-07-12T04:36:15.628Z,61.64
2023-07-12T04:38:42.094Z,61.72
2023-07-12T04:41:09.117Z,61.71
2023-07-12T04:43:35.836Z,61.69
2023-07-12T04:46:02.387Z,61.30
2023-07-12T04:48:31.471Z,61.44
2023-07-12T04:50:58.122Z,61.37
2023-07-12T04:53:24.683Z,61.42
2023-07-12T04:55:56.203Z,61.31
2023-07-12T04:58:22.796Z,61.10
2023-07-12T05:00:49.285Z,61.14
2023-07-12T05:03:18.567Z,61.08
2023-07-12T05:05:45.563Z,60.84
2023-07-12T05:08:12.305Z,60.83
2023-07-12T05:10:39.070Z,60.89
2023-07-12T05:13:05.848Z,60.91
2023-07-12T05:15:32.335Z,61.02
2023-07-12T05:17:59.107Z,60.44
2023-07-12T05:20:25.717Z,60.67
2023-07-12T05:22:52.178Z,60.58
2023-07-12T05:25:18.749Z,60.65
2023-07-12T05:27:45.299Z,60.63
2023-07-12T05:30:12.445Z,60.51
2023-07-12T05:32:39.543Z,60.55
2023-07-12T05:35:06.849Z,60.52
2023-07-12T05:37:34.324Z,60.51
2023-07-12T05:40:01.046Z,60.39
2023-07-12T05:42:27.602Z,60.45
2023-07-12T05:44:54.109Z,60.30
2023-07-12T05:47:20.713Z,60.19
2023-07-12T05:49:47.293Z,60.25
2023-07-12T05:54:40.051Z,60.16
2023-07-12T05:57:06.797Z,60.25
2023-07-12T05:59:33.363Z,60.54
2023-07-12T06:01:59.832Z,60.17
2023-07-12T06:04:26.286Z,60.13
2023-07-12T06:06:53.959Z,59.85
2023-07-12T06:09:20.598Z,60.04
2023-07-12T06:11:47.097Z,60.02
2023-07-12T06:14:13.541Z,60.19
2023-07-12T06:16:40.300Z,60.20
2023-07-12T06:19:06.948Z,60.06
2023-07-12T06:21:33.597Z,59.93
2023-07-12T06:24:00.733Z,59.89
2023-07-12T06:26:28.497Z,59.85
2023-07-12T06:28:55.384Z,59.81
2023-07-12T06:31:22.041Z,59.41
2023-07-12T06:33:48.557Z,59.75
2023-07-12T06:36:15.089Z,59.81
2023-07-12T06:38:41.633Z,59.82
2023-07-12T06:41:08.256Z,59.76
2023-07-12T06:43:35.030Z,59.72
2023-07-12T06:46:01.560Z,59.52
2023-07-12T06:48:28.223Z,59.51
2023-07-12T06:50:56.076Z,59.72
2023-07-12T06:53:22.589Z,59.66
2023-07-12T06:55:49.551Z,59.64
2023-07-12T06:58:16.057Z,59.97
2023-07-12T07:00:43.905Z,59.58
2023-07-12T07:03:11.731Z,59.65
2023-07-12T07:05:41.409Z,59.81
2023-07-12T07:08:09.580Z,59.51
2023-07-12T07:10:36.028Z,59.66
2023-07-12T07:13:02.541Z,59.51
2023-07-12T07:15:29.895Z,59.51
2023-07-12T07:17:58.095Z,59.52
2023-07-12T07:20:25.024Z,59.56
2023-07-12T07:22:51.505Z,59.43
2023-07-12T07:25:21.263Z,59.41
2023-07-12T07:27:48.260Z,59.47
2023-07-12T07:30:15.243Z,59.47
2023-07-12T07:32:41.817Z,59.56
2023-07-12T07:35:08.770Z,59.50
2023-07-12T07:37:35.275Z,59.36
2023-07-12T07:40:01.810Z,59.43
2023-07-12T07:42:28.332Z,59.38
2023-07-12T07:44:54.817Z,59.59
2023-07-12T07:47:22.485Z,59.53
2023-07-12T07:49:48.984Z,59.54
2023-07-12T07:52:15.566Z,59.60
2023-07-12T07:54:42.028Z,59.32
2023-07-12T07:57:08.871Z,59.20
2023-07-12T07:59:35.544Z,59.40
2023-07-12T08:02:02.490Z,59.65
2023-07-12T08:04:29.415Z,59.40
2023-07-12T08:06:57.380Z,59.07
2023-07-12T08:09:24.155Z,59.20
2023-07-12T08:11:50.728Z,59.16
2023-07-12T08:14:19.492Z,59.40
2023-07-12T08:16:46.221Z,59.16
2023-07-12T08:19:17.658Z,59.50
2023-07-12T08:21:45.672Z,59.10
2023-07-12T08:24:12.197Z,59.37
2023-07-12T08:26:39.290Z,59.32
2023-07-12T08:29:06.816Z,59.25
2023-07-12T08:31:34.287Z,58.78
2023-07-12T08:34:01.158Z,59.07
2023-07-12T08:36:27.655Z,58.94
2023-07-12T08:38:54.132Z,58.86
2023-07-12T08:41:27.195Z,58.91
2023-07-12T08:43:53.830Z,59.03
2023-07-12T08:46:23.767Z,58.94
2023-07-12T08:48:59.936Z,58.61
2023-07-12T08:51:31.574Z,59.01
2023-07-12T08:53:58.405Z,58.79
2023-07-12T08:56:26.138Z,58.64
2023-07-12T08:58:54.786Z,58.95
2023-07-12T09:01:45.890Z,58.49
2023-07-12T09:04:29.185Z,58.60
2023-07-12T09:06:58.804Z,58.57
2023-07-12T09:09:27.650Z,58.51
2023-07-12T09:11:54.692Z,58.55
2023-07-12T09:14:24.482Z,58.44
2023-07-12T09:16:57.835Z,58.52
2023-07-12T09:19:28.419Z,58.58
2023-07-12T09:21:57.514Z,58.45
2023-07-12T09:24:41.876Z,58.79
2023-07-12T09:27:19.785Z,58.58
2023-07-12T09:29:46.400Z,58.23
2023-07-12T09:32:21.130Z,58.39
2023-07-12T09:34:48.979Z,58.86
2023-07-12T09:37:21.281Z,58.29
2023-07-12T09:39:59.866Z,58.45
2023-07-12T09:42:28.885Z,58.65
2023-07-12T09:44:55.785Z,58.19
2023-07-12T09:47:35.316Z,58.58
2023-07-12T09:50:27.449Z,58.07
2023-07-12T09:53:10.848Z,58.37
2023-07-12T09:55:52.332Z,58.24
2023-07-12T09:58:29.385Z,58.49
2023-07-12T10:01:07.726Z,58.25
2023-07-12T10:03:42.509Z,58.15
2023-07-12T10:06:36.112Z,57.82
2023-07-12T10:09:16.428Z,57.85
2023-07-12T10:12:00.501Z,57.78
2023-07-12T10:14:34.055Z,57.82
2023-07-12T10:17:01.183Z,57.59
2023-07-12T10:19:34.060Z,57.82
2023-07-12T10:22:03.919Z,57.63
2023-07-12T10:24:37.295Z,57.70
2023-07-12T10:27:12.713Z,58.06
2023-07-12T10:30:11.335Z,57.58
2023-07-12T10:32:44.570Z,57.43
2023-07-12T10:35:20.817Z,57.03
2023-07-12T10:37:49.881Z,57.17
2023-07-12T10:40:24.281Z,57.46
2023-07-12T10:42:56.716Z,57.51
2023-07-12T10:45:30.568Z,57.58
2023-07-12T10:47:59.591Z,57.48
2023-07-12T10:50:46.325Z,57.39
2023-07-12T10:53:34.711Z,57.33
2023-07-12T10:56:16.520Z,57.35
2023-07-12T10:58:56.769Z,57.00
2023-07-12T11:01:42.200Z,57.23
2023-07-12T11:04:14.432Z,57.20
2023-07-12T11:07:02.967Z,57.57
2023-07-12T11:09:47.092Z,57.35
2023-07-12T11:12:32.184Z,57.63
2023-07-12T11:15:05.759Z,57.35
2023-07-12T11:18:04.483Z,56.65
2023-07-12T11:20:36.998Z,56.37
2023-07-12T11:23:06.677Z,56.49
2023-07-12T11:25:45.735Z,56.55
2023-07-12T11:28:21.465Z,56.45
2023-07-12T11:31:03.769Z,56.41
2023-07-12T11:33:33.654Z,56.52
2023-07-12T11:36:14.805Z,56.80
2023-07-12T11:38:44.492Z,56.30
2023-07-12T11:41:17.878Z,56.38
2023-07-12T11:43:44.572Z,55.82
2023-07-12T11:46:15.067Z,56.19
2023-07-12T11:48:45.018Z,55.96
2023-07-12T11:51:20.334Z,56.26
2023-07-12T11:53:58.147Z,56.25
2023-07-12T11:56:25.592Z,56.25
2023-07-12T11:58:52.348Z,56.21
2023-07-12T12:01:22.229Z,56.44
2023-07-12T12:03:50.869Z,56.48
2023-07-12T12:06:19.477Z,55.64
2023-07-12T12:08:51.990Z,55.83
2023-07-12T12:11:18.498Z,55.82
2023-07-12T12:13:52.334Z,56.06
2023-07-12T12:16:29.590Z,56.01
2023-07-12T12:19:09.033Z,55.61
2023-07-12T12:21:48.099Z,55.35
2023-07-12T12:24:20.406Z,55.75
2023-07-12T12:26:48.530Z,55.30
2023-07-12T12:29:20.630Z,55.69
2023-07-12T12:31:56.663Z,54.89
2023-07-12T12:34:28.339Z,54.88
2023-07-12T12:37:08.514Z,54.78
2023-07-12T12:39:35.835Z,55.11
2023-07-12T12:42:23.445Z,54.96
2023-07-12T12:44:52.309Z,54.47
2023-07-12T12:47:21.954Z,54.89
2023-07-12T12:53:14.492Z,54.21
2023-07-12T12:55:36.143Z,54.56
2023-07-12T12:58:25.385Z,54.48
2023-07-12T13:04:54.252Z,54.85
2023-07-12T13:06:20.888Z,54.82
2023-07-12T13:11:12.568Z,54.31
2023-07-12T13:21:34.671Z,53.91
2023-07-12T13:24:01.905Z,54.01
2023-07-12T13:26:28.717Z,54.46
2023-07-12T13:28:55.414Z,53.81
2023-07-12T13:31:22.878Z,54.12
2023-07-12T13:36:40.977Z,54.07
2023-07-12T13:46:43.873Z,53.45
2023-07-12T13:49:16.354Z,52.98
2023-07-12T13:51:43.198Z,53.22
2023-07-12T13:54:10.577Z,53.52
2023-07-12T14:04:23.372Z,52.95
2023-07-12T14:06:56.471Z,53.28
2023-07-12T14:09:24.524Z,53.39
2023-07-12T14:11:51.158Z,52.81
2023-07-12T14:14:17.664Z,53.09
2023-07-12T14:16:44.246Z,52.84
2023-07-12T14:19:10.840Z,52.81
2023-07-12T14:21:37.482Z,53.12
2023-07-12T14:24:04.385Z,52.76
2023-07-12T14:26:30.837Z,53.31
2023-07-12T14:29:00.512Z,52.59
2023-07-12T14:31:28.237Z,52.76
2023-07-12T14:33:55.119Z,53.00
2023-07-12T14:36:24.662Z,52.30
2023-07-12T14:38:51.619Z,53.07
2023-07-12T14:41:23.607Z,52.95
2023-07-12T14:43:50.052Z,48.45
2023-07-12T14:46:18.194Z,46.61
2023-07-12T14:48:46.020Z,44.97
2023-07-12T14:51:20.070Z,43.89
2023-07-12T14:53:53.083Z,44.48
2023-07-12T14:56:22.287Z,44.06
2023-07-12T14:58:49.146Z,44.24
2023-07-12T15:01:29.065Z,46.19
2023-07-12T15:03:59.545Z,43.19
2023-07-12T15:06:26.090Z,45.40
2023-07-12T15:08:53.570Z,43.56
2023-07-12T15:11:26.789Z,42.27
2023-07-12T15:13:53.459Z,42.21
2023-07-12T15:16:21.554Z,41.98
2023-07-12T15:18:49.421Z,40.12
2023-07-12T15:21:28.996Z,40.32
2023-07-12T15:23:57.611Z,40.07
2023-07-12T15:26:25.038Z,40.44
2023-07-12T15:28:52.266Z,41.26
2023-07-12T15:31:34.050Z,42.31
2023-07-12T15:34:01.846Z,41.15
2023-07-12T15:36:28.729Z,39.53
2023-07-12T15:38:55.573Z,40.40
2023-07-12T15:41:24.705Z,39.64
2023-07-12T15:43:56.266Z,40.01
2023-07-12T15:46:32.370Z,41.30
2023-07-12T15:48:59.640Z,40.16
2023-07-12T15:51:37.635Z,40.89
2023-07-12T15:54:19.014Z,40.99
2023-07-12T15:56:46.669Z,40.56
2023-07-12T15:59:17.616Z,40.28
2023-07-12T16:01:44.507Z,40.10
2023-07-12T16:04:19.064Z,39.79
2023-07-12T16:06:46.471Z,40.43
2023-07-12T16:09:13.348Z,39.55
2023-07-12T16:11:44.474Z,38.75
2023-07-12T16:14:23.294Z,37.24
2023-07-12T16:16:50.652Z,37.77
2023-07-12T16:19:19.311Z,38.56
2023-07-12T16:21:47.042Z,38.55
2023-07-12T16:24:14.616Z,38.79
2023-07-12T16:26:41.327Z,39.66
2023-07-12T16:29:09.397Z,39.63
2023-07-12T16:31:41.949Z,40.49
2023-07-12T16:34:16.504Z,40.50
2023-07-12T16:36:47.310Z,40.43
2023-07-12T16:39:14.375Z,39.92
2023-07-12T16:41:43.734Z,40.54
2023-07-12T16:44:15.819Z,40.41
2023-07-12T16:46:42.489Z,41.09
2023-07-12T16:49:11.148Z,41.15
2023-07-12T16:51:49.976Z,41.93
2023-07-12T16:54:16.454Z,42.21
2023-07-12T16:56:42.944Z,41.65
2023-07-12T16:59:09.545Z,42.30
2023-07-12T17:01:36.675Z,42.02
2023-07-12T17:04:06.236Z,42.97
2023-07-12T17:06:33.108Z,42.81
2023-07-12T17:08:59.656Z,41.34
2023-07-12T17:11:29.127Z,41.93
2023-07-12T17:13:55.795Z,42.63
2023-07-12T17:16:22.549Z,42.17
2023-07-12T17:18:49.291Z,42.65
2023-07-12T17:21:18.696Z,42.40
2023-07-12T17:23:46.185Z,42.87
2023-07-12T17:26:17.900Z,42.38
2023-07-12T17:28:46.168Z,42.36
2023-07-12T17:31:18.578Z,42.12
2023-07-12T17:33:46.018Z,41.36
2023-07-12T17:36:15.558Z,41.30
2023-07-12T17:38:43.201Z,41.74
2023-07-12T17:41:18.498Z,41.76
2023-07-12T17:43:45.337Z,42.66
2023-07-12T17:46:13.267Z,42.68
2023-07-12T17:48:40.851Z,42.61
2023-07-12T17:51:18.758Z,42.36
2023-07-12T17:53:45.347Z,42.63
2023-07-12T17:56:14.235Z,42.82
2023-07-12T17:58:41.972Z,42.79
2023-07-12T18:01:17.196Z,42.91
2023-07-12T18:03:46.514Z,42.73
2023-07-12T18:06:18.534Z,42.76
2023-07-12T18:08:46.263Z,42.88
2023-07-12T18:11:30.750Z,43.22
2023-07-12T18:13:59.957Z,43.25
2023-07-12T18:16:28.736Z,43.89
2023-07-12T18:18:55.433Z,43.40
2023-07-12T18:21:24.614Z,43.76
2023-07-12T18:23:51.995Z,43.81
2023-07-12T18:26:20.516Z,43.55
2023-07-12T18:28:47.881Z,43.62
2023-07-12T18:31:37.871Z,43.74
2023-07-12T18:34:07.220Z,43.82
2023-07-12T18:36:34.309Z,43.85
2023-07-12T18:39:05.923Z,43.84
2023-07-12T18:41:32.476Z,43.99
2023-07-12T18:43:59.008Z,43.50
2023-07-12T18:46:25.991Z,43.16
2023-07-12T18:48:52.913Z,43.01
2023-07-12T18:51:22.205Z,42.86
2023-07-12T18:53:48.864Z,42.53
2023-07-12T18:56:19.554Z,42.63
2023-07-12T18:58:46.745Z,42.65
2023-07-12T19:01:15.918Z,42.85
2023-07-12T19:03:43.227Z,43.16
2023-07-12T19:06:22.845Z,43.69
2023-07-12T19:08:49.458Z,43.45
2023-07-12T19:11:30.027Z,43.72
2023-07-12T19:13:56.983Z,43.73
2023-07-12T19:16:24.642Z,43.46
2023-07-12T19:18:51.851Z,43.41
2023-07-12T19:21:25.997Z,43.47
2023-07-12T19:23:54.564Z,43.76
2023-07-12T19:26:23.137Z,43.98
2023-07-12T19:28:51.067Z,43.90
2023-07-12T19:31:35.579Z,43.76
2023-07-12T19:34:02.095Z,43.94
2023-07-12T19:36:30.550Z,44.10
2023-07-12T19:38:58.673Z,43.64
2023-07-12T19:41:29.004Z,43.42
2023-07-12T19:43:55.786Z,44.04
2023-07-12T19:46:23.092Z,43.64
2023-07-12T19:48:49.877Z,44.16
2023-07-12T19:51:22.192Z,44.11
2023-07-12T19:53:54.895Z,44.62
2023-07-12T19:56:22.265Z,44.94
2023-07-12T19:58:53.608Z,45.12
2023-07-12T20:01:21.279Z,45.48
2023-07-12T20:03:48.931Z,45.76
2023-07-12T20:06:18.904Z,45.79
2023-07-12T20:08:46.405Z,45.74
2023-07-12T20:11:14.364Z,46.16
2023-07-12T20:13:42.084Z,45.97
2023-07-12T20:16:10.165Z,46.32
2023-07-12T20:18:37.595Z,46.25
2023-07-12T20:21:05.412Z,46.54
2023-07-12T20:23:32.647Z,46.37
2023-07-12T20:25:59.517Z,46.31
2023-07-12T20:28:30.688Z,46.66
2023-07-12T20:30:58.692Z,46.55
2023-07-12T20:33:27.587Z,46.97
2023-07-12T20:35:54.164Z,47.00
2023-07-12T20:38:20.954Z,46.92
2023-07-12T20:40:47.854Z,47.21
2023-07-12T20:45:41.531Z,47.26
2023-07-12T20:48:11.067Z,47.44
2023-07-12T20:50:37.824Z,47.50
2023-07-12T20:53:07.690Z,47.59
2023-07-12T20:55:34.911Z,47.57
2023-07-12T20:58:01.871Z,47.77
2023-07-12T21:00:47.278Z,47.79
2023-07-12T21:03:14.316Z,47.71
2023-07-12T21:05:41.034Z,47.78
2023-07-12T21:08:08.247Z,47.81
2023-07-12T21:10:34.728Z,48.10
2023-07-12T21:13:01.191Z,47.90
2023-07-12T21:15:27.757Z,47.86
2023-07-12T21:17:55.245Z,48.18
2023-07-12T21:20:21.753Z,47.94
2023-07-12T21:22:48.258Z,48.24
2023-07-12T21:25:15.012Z,48.08
2023-07-12T21:27:41.489Z,48.17
2023-07-12T21:30:09.495Z,48.49
2023-07-12T21:32:35.990Z,48.50
2023-07-12T21:35:03.166Z,48.51
2023-07-12T21:37:29.781Z,48.55
2023-07-12T21:39:56.266Z,48.63
2023-07-12T21:42:22.832Z,48.64
2023-07-12T21:44:50.887Z,48.74
2023-07-12T21:47:17.381Z,48.84
2023-07-12T21:49:43.947Z,48.76
2023-07-12T21:52:10.501Z,48.89
2023-07-12T21:54:37.100Z,49.03
2023-07-12T21:57:04.567Z,48.99
2023-07-12T21:59:31.114Z,49.09
2023-07-12T22:01:57.638Z,49.16
2023-07-12T22:04:24.306Z,49.38
2023-07-12T22:06:50.808Z,48.95
2023-07-12T22:09:17.310Z,49.20
2023-07-12T22:11:43.864Z,49.43
2023-07-12T22:14:10.503Z,49.51
2023-07-12T22:16:37.411Z,49.64
2023-07-12T22:19:04.848Z,49.45
2023-07-12T22:21:31.348Z,49.40
2023-07-12T22:23:57.869Z,49.65
2023-07-12T22:26:27.584Z,49.71
2023-07-12T22:28:54.803Z,49.51
2023-07-12T22:31:22.299Z,49.69
2023-07-12T22:33:49.310Z,49.89
2023-07-12T22:36:15.788Z,49.96
2023-07-12T22:38:42.370Z,50.02
2023-07-12T22:41:10.320Z,50.07
2023-07-12T22:43:36.836Z,49.83
2023-07-12T22:46:07.825Z,50.08
2023-07-12T22:48:37.553Z,49.97
2023-07-12T22:51:04.231Z,50.07
2023-07-12T22:53:31.628Z,50.44
2023-07-12T22:56:00.518Z,50.46
2023-07-12T22:58:28.369Z,50.62
2023-07-12T23:00:56.118Z,50.46
2023-07-12T23:03:23.255Z,50.29
2023-07-12T23:05:57.381Z,50.31
2023-07-12T23:08:26.526Z,50.54
2023-07-12T23:10:54.571Z,50.66
2023-07-12T23:13:27.118Z,50.42
2023-07-12T23:15:55.721Z,50.67
2023-07-12T23:18:25.444Z,50.77
2023-07-12T23:20:53.312Z,50.86
2023-07-12T23:23:20.755Z,50.84
2023-07-12T23:25:48.110Z,50.85
2023-07-12T23:28:15.569Z,50.88
2023-07-12T23:30:42.115Z,50.98
2023-07-12T23:33:09.180Z,51.02
2023-07-12T23:35:36.656Z,51.10
2023-07-12T23:38:03.780Z,51.08
2023-07-12T23:40:30.362Z,51.03
2023-07-12T23:42:57.320Z,51.17
2023-07-12T23:45:24.770Z,51.17
2023-07-12T23:47:52.045Z,51.23
2023-07-12T23:50:21.612Z,51.46
2023-07-12T23:52:50.172Z,51.31
2023-07-12T23:55:16.879Z,51.45
2023-07-12T23:57:43.510Z,51.43
